.
WxDataArchive / Data Records for 2006-10-12
2006-10-11 October 2006 2006-10-13

Data Records for Thursday, 12 October 2006

Time	Temp	Chill	HIndex	Humid	Dewpt	 Wind 	HiWind	WindDir	Rain 	Barom 
-----	----	-----	------	-----	-----	------	------	-------	-----	----- 
00:00	41.3	38.8	41.3	69	31.9	4	7	270	0.00	29.550 
00:05	41.1	41.1	41.1	70	32.1	3	9	270	0.00	29.550 
00:10	40.6	37.2	40.6	69	31.2	5	11	270	0.00	29.550 
00:15	40.5	37.9	40.5	69	31.1	4	7	270	0.00	29.553 
00:20	40.3	40.3	40.3	70	31.3	2	5	270	0.00	29.553 
00:25	40.2	37.5	40.2	70	31.2	4	7	270	0.00	29.553 
00:30	40.2	40.2	40.2	71	31.6	3	5	270	0.00	29.556 
00:35	40.1	40.1	40.1	71	31.5	2	5	270	0.00	29.556 
00:40	39.9	37.2	39.9	71	31.3	4	10	270	0.00	29.556 
00:45	39.6	39.6	39.6	68	29.9	3	7	270	0.00	29.571 
00:50	39.2	36.4	39.2	68	29.5	4	12	270	0.00	29.571 
00:55	38.9	38.9	38.9	68	29.3	3	7	270	0.00	29.571 
01:00	38.6	38.6	38.6	68	29.0	3	6	270	0.00	29.570 
01:05	38.2	38.2	38.2	68	28.6	3	9	270	0.00	29.570 
01:10	38.2	38.2	38.2	69	28.9	3	9	270	0.00	29.570 
01:15	38.2	38.2	38.2	70	29.3	2	4	248	0.00	29.575 
01:20	38.0	38.0	38.0	70	29.1	2	5	270	0.00	29.575 
01:25	37.8	37.8	37.8	69	28.6	3	6	270	0.00	29.575 
01:30	37.5	37.5	37.5	68	27.9	3	8	270	0.00	29.578 
01:35	37.2	34.1	37.2	69	28.0	4	9	270	0.00	29.578 
01:40	36.9	36.9	36.9	70	28.0	2	4	270	0.00	29.578 
01:45	36.6	36.6	36.6	70	27.8	2	5	270	0.00	29.583 
01:50	36.5	36.5	36.5	70	27.7	3	6	270	0.00	29.583 
01:55	36.2	36.2	36.2	69	27.0	3	7	270	0.00	29.583 
02:00	35.9	35.9	35.9	70	27.1	2	6	270	0.00	29.589 
02:05	35.6	35.6	35.6	70	26.8	2	7	270	0.00	29.589 
02:10	35.5	35.5	35.5	71	27.0	3	6	270	0.00	29.589 
02:15	35.3	35.3	35.3	71	26.9	2	7	270	0.00	29.590 
02:20	35.2	35.2	35.2	71	26.8	2	5	270	0.00	29.590 
02:25	35.0	35.0	35.0	71	26.6	3	6	270	0.00	29.590 
02:30	34.9	34.9	34.9	72	26.8	2	4	248	0.00	29.594 
02:35	34.7	34.7	34.7	70	25.9	3	6	270	0.00	29.594 
02:40	34.6	34.6	34.6	71	26.2	2	6	270	0.00	29.594 
02:45	34.4	34.4	34.4	72	26.3	2	6	270	0.00	29.602 
02:50	34.4	34.4	34.4	71	26.0	2	6	270	0.00	29.602 
02:55	34.3	34.3	34.3	71	25.9	2	5	270	0.00	29.602 
03:00	34.3	34.3	34.3	71	25.9	2	7	248	0.00	29.610 
03:05	34.1	34.1	34.1	71	25.7	2	7	248	0.00	29.610 
03:10	34.0	34.0	34.0	71	25.6	1	5	248	0.00	29.610 
03:15	33.8	33.8	33.8	71	25.4	1	5	248	0.00	29.608 
03:20	33.8	33.8	33.8	72	25.7	2	6	270	0.00	29.608 
03:25	33.7	33.7	33.7	72	25.7	2	5	248	0.00	29.608 
03:30	33.7	33.7	33.7	72	25.7	3	9	270	0.00	29.610 
03:35	33.7	33.7	33.7	72	25.7	2	6	270	0.00	29.610 
03:40	33.5	33.5	33.5	73	25.8	2	7	270	0.00	29.610 
03:45	33.5	33.5	33.5	72	25.5	2	5	248	0.00	29.609 
03:50	33.5	33.5	33.5	72	25.5	2	5	270	0.00	29.609 
03:55	33.5	33.5	33.5	72	25.5	2	7	270	0.00	29.609 
04:00	33.5	33.5	33.5	72	25.5	3	7	248	0.00	29.611 
04:05	33.5	33.5	33.5	72	25.5	2	6	248	0.00	29.611 
04:10	33.5	33.5	33.5	72	25.5	3	5	270	0.00	29.611 
04:15	33.5	33.5	33.5	72	25.5	3	12	270	0.00	29.617 
04:20	33.4	33.4	33.4	73	25.7	2	5	270	0.00	29.617 
04:25	33.4	33.4	33.4	73	25.7	3	5	270	0.00	29.617 
04:30	33.2	33.2	33.2	73	25.5	2	4	270	0.00	29.616 
04:35	33.2	33.2	33.2	74	25.8	2	6	270	0.00	29.616 
04:40	33.2	33.2	33.2	74	25.8	2	4	248	0.00	29.616 
04:45	33.2	33.2	33.2	74	25.8	2	4	270	0.00	29.622 
04:50	33.1	33.1	33.1	74	25.7	1	4	248	0.00	29.622 
04:55	33.1	33.1	33.1	74	25.7	1	5	248	0.00	29.622 
05:00	33.1	33.1	33.1	74	25.7	1	3	248	0.00	29.618 
05:05	33.1	33.1	33.1	74	25.7	1	3	248	0.00	29.618 
05:10	33.2	33.2	33.2	74	25.8	1	3	248	0.00	29.618 
05:15	33.2	33.2	33.2	74	25.8	1	5	248	0.00	29.625 
05:20	33.1	33.1	33.1	74	25.7	1	3	270	0.00	29.625 
05:25	33.1	33.1	33.1	75	26.1	2	4	248	0.00	29.625 
05:30	33.1	33.1	33.1	75	26.1	2	5	248	0.00	29.621 
05:35	33.1	33.1	33.1	75	26.1	1	5	248	0.00	29.621 
05:40	33.1	33.1	33.1	75	26.1	1	3	248	0.00	29.621 
05:45	33.1	33.1	33.1	76	26.4	1	6	270	0.00	29.624 
05:50	32.9	32.9	32.9	76	26.2	1	3	248	0.00	29.624 
05:55	32.9	32.9	32.9	77	26.5	1	3	248	0.00	29.624 
06:00	32.8	32.8	32.8	77	26.4	1	3	248	0.00	29.623 
06:05	32.7	32.7	32.7	77	26.3	1	3	248	0.00	29.623 
06:10	32.7	32.7	32.7	78	26.6	1	4	270	0.00	29.623 
06:15	32.7	32.7	32.7	77	26.3	2	5	248	0.00	29.638 
06:20	32.7	32.7	32.7	78	26.6	1	4	248	0.00	29.638 
06:25	32.7	32.7	32.7	78	26.6	1	9	248	0.00	29.638 
06:30	32.7	32.7	32.7	78	26.6	2	5	248	0.00	29.651 
06:35	32.7	32.7	32.7	79	26.9	1	4	248	0.00	29.651 
06:40	32.5	32.5	32.5	79	26.7	2	4	248	0.00	29.651 
06:45	32.5	32.5	32.5	79	26.7	1	5	248	0.00	29.653 
06:50	32.5	32.5	32.5	79	26.7	1	5	248	0.00	29.653 
06:55	32.5	32.5	32.5	79	26.7	2	6	270	0.00	29.653 
07:00	32.4	32.4	32.4	79	26.6	1	4	248	0.00	29.663 
07:05	32.4	32.4	32.4	78	26.3	2	6	248	0.00	29.663 
07:10	32.4	32.4	32.4	78	26.3	2	6	248	0.00	29.663 
07:15	32.4	32.4	32.4	77	26.0	2	6	248	0.00	29.656 
07:20	32.4	32.4	32.4	77	26.0	2	6	248	0.00	29.656 
07:25	32.4	32.4	32.4	77	26.0	2	6	248	0.00	29.656 
07:30	32.2	32.2	32.2	77	25.8	2	5	248	0.00	29.662 
07:35	32.2	32.2	32.2	77	25.8	2	9	270	0.00	29.662 
07:40	32.1	32.1	32.1	77	25.7	1	5	270	0.00	29.662 
07:45	31.9	31.9	31.9	77	25.5	2	7	248	0.00	29.666 
07:50	31.9	31.9	31.9	77	25.5	3	8	248	0.00	29.666 
07:55	31.9	31.9	31.9	77	25.5	2	6	248	0.00	29.666 
08:00	31.8	31.8	31.8	77	25.4	2	13	248	0.00	29.670 
08:05	31.9	31.9	31.9	77	25.5	3	10	270	0.00	29.670 
08:10	31.8	31.8	31.8	77	25.4	3	6	270	0.00	29.670 
08:15	31.9	31.9	31.9	76	25.2	3	7	270	0.00	29.669 
08:20	31.9	31.9	31.9	76	25.2	2	6	270	0.00	29.669 
08:25	31.9	31.9	31.9	76	25.2	3	6	248	0.00	29.669 
08:30	31.9	31.9	31.9	75	24.9	2	5	270	0.00	29.671 
08:35	32.1	32.1	32.1	74	24.8	2	5	270	0.00	29.671 
08:40	32.2	32.2	32.2	74	24.9	2	6	270	0.00	29.671 
08:45	32.4	32.4	32.4	73	24.7	3	6	270	0.00	29.674 
08:50	32.5	32.5	32.5	72	24.5	2	4	270	0.00	29.674 
08:55	32.5	32.5	32.5	71	24.2	3	7	270	0.00	29.674 
09:00	32.7	32.7	32.7	71	24.4	3	5	270	0.00	29.670 
09:05	32.8	32.8	32.8	70	24.1	3	5	270	0.00	29.670 
09:10	33.1	33.1	33.1	70	24.4	3	6	270	0.00	29.670 
09:15	33.2	33.2	33.2	70	24.5	3	6	270	0.00	29.672 
09:20	33.5	33.5	33.5	71	25.1	2	5	270	0.00	29.672 
09:25	33.8	33.8	33.8	67	24.0	3	7	270	0.00	29.672 
09:30	34.0	30.4	34.0	67	24.2	4	6	270	0.00	29.680 
09:35	34.3	30.7	34.3	65	23.8	4	10	270	0.00	29.680 
09:40	34.4	30.8	34.4	66	24.2	4	7	270	0.00	29.680 
09:45	34.7	34.7	34.7	66	24.5	3	9	270	0.00	29.676 
09:50	35.3	35.3	35.3	66	25.1	2	5	270	0.00	29.676 
09:55	35.8	35.8	35.8	64	24.8	3	6	270	0.00	29.676 
10:00	35.9	35.9	35.9	62	24.2	3	6	270	0.00	29.681 
10:05	36.2	36.2	36.2	65	25.6	3	9	270	0.00	29.681 
10:10	36.3	32.1	36.3	62	24.5	5	11	270	0.00	29.681 
10:15	36.5	33.3	36.5	63	25.1	4	10	270	0.00	29.684 
10:20	36.9	33.7	36.9	61	24.7	4	12	270	0.00	29.684 
10:25	36.9	33.7	36.9	61	24.7	4	13	270	0.00	29.684 
10:30	37.3	37.3	37.3	61	25.1	3	9	270	0.00	29.683 
10:35	37.6	34.5	37.6	61	25.4	4	9	270	0.00	29.683 
10:40	37.3	34.2	37.3	62	25.5	4	11	270	0.00	29.683 
10:45	37.5	34.4	37.5	64	26.4	4	9	270	0.00	29.691 
10:50	36.5	36.5	36.5	68	27.0	3	9	270	0.00	29.691 
10:55	35.5	35.5	35.5	70	26.7	2	5	270	0.00	29.691 
11:00	34.9	34.9	34.9	71	26.5	3	5	270	0.00	29.689 
11:05	35.0	35.0	35.0	71	26.6	3	5	270	0.00	29.689 
11:10	35.6	35.6	35.6	69	26.4	2	5	292	0.00	29.689 
11:15	36.9	36.9	36.9	68	27.3	3	5	270	0.00	29.686 
11:20	37.8	33.9	37.8	61	25.6	5	13	270	0.00	29.686 
11:25	38.5	35.6	38.5	60	25.8	4	7	270	0.00	29.686 
11:30	38.9	34.4	38.9	55	24.1	6	14	270	0.00	29.682 
11:35	39.5	35.9	39.5	54	24.2	5	11	270	0.00	29.682 
11:40	38.9	35.2	38.9	54	23.7	5	15	270	0.00	29.682 
11:45	39.1	36.3	39.1	59	26.0	4	10	270	0.00	29.682 
11:50	39.3	36.5	39.3	53	23.6	4	8	270	0.00	29.682 
11:55	39.2	36.4	39.2	52	23.1	4	9	270	0.00	29.682 
12:00	39.6	39.6	39.6	55	24.8	3	7	270	0.00	29.681 
12:05	39.9	35.6	39.9	49	22.3	6	12	270	0.00	29.681 
12:10	40.3	36.8	40.3	50	23.2	5	10	270	0.00	29.681 
12:15	40.9	37.5	40.9	49	23.2	5	10	270	0.00	29.682 
12:20	40.9	38.4	40.9	48	22.7	4	10	270	0.00	29.682 
12:25	40.8	36.7	40.8	47	22.1	6	12	270	0.00	29.682 
12:30	40.9	36.8	40.9	46	21.7	6	16	270	0.00	29.679 
12:35	40.8	36.7	40.8	48	22.6	6	16	270	0.00	29.679 
12:40	40.6	37.2	40.6	45	20.9	5	14	270	0.00	29.679 
12:45	39.9	35.6	39.9	43	19.2	6	12	270	0.00	29.680 
12:50	40.3	36.1	40.3	45	20.7	6	14	270	0.00	29.680 
12:55	41.1	37.8	41.1	42	19.8	5	13	248	0.00	29.680 
13:00	40.8	40.8	40.8	43	20.1	3	6	270	0.00	29.677 
13:05	40.8	40.8	40.8	43	20.1	3	8	270	0.00	29.677 
13:10	40.9	38.4	40.9	40	18.5	4	9	270	0.00	29.677 
13:15	40.1	37.4	40.1	43	19.4	4	14	270	0.00	29.675 
13:20	39.8	37.1	39.8	42	18.6	4	9	270	0.00	29.675 
13:25	39.5	36.7	39.5	45	19.9	4	16	248	0.00	29.675 
13:30	39.3	39.3	39.3	45	19.8	3	6	248	0.00	29.675 
13:35	39.5	36.7	39.5	44	19.4	4	8	270	0.00	29.675 
13:40	39.8	39.8	39.8	47	21.2	2	5	248	0.00	29.675 
13:45	40.2	36.7	40.2	44	20.0	5	12	270	0.00	29.671 
13:50	40.5	36.4	40.5	52	24.3	6	15	270	0.00	29.671 
13:55	40.9	40.9	40.9	52	24.6	3	10	248	0.00	29.671 
14:00	40.6	40.6	40.6	50	23.4	3	6	270	0.00	29.674 
14:05	38.6	34.8	38.6	61	26.3	5	10	270	0.00	29.674 
14:10	34.9	31.4	34.9	79	29.1	4	7	270	0.00	29.674 
14:15	33.7	33.7	33.7	84	29.4	2	5	270	0.00	29.697 
14:20	34.6	34.6	34.6	87	31.1	2	4	248	0.00	29.697 
14:25	35.8	35.8	35.8	86	32.0	2	6	270	0.00	29.697 
14:30	36.8	36.8	36.8	81	31.5	3	7	270	0.00	29.686 
14:35	37.6	37.6	37.6	77	31.1	2	5	270	0.00	29.686 
14:40	37.5	37.5	37.5	71	29.0	3	5	270	0.00	29.686 
14:45	36.8	36.8	36.8	77	30.3	3	11	270	0.00	29.691 
14:50	36.5	36.5	36.5	81	31.2	2	3	270	0.00	29.691 
14:55	37.2	37.2	37.2	81	31.9	2	7	270	0.00	29.691 
15:00	37.8	37.8	37.8	75	30.6	3	9	248	0.00	29.676 
15:05	38.6	38.6	38.6	73	30.7	2	6	248	0.00	29.676 
15:10	38.9	36.0	38.9	66	28.5	4	10	248	0.00	29.676 
15:15	39.2	36.4	39.2	62	27.3	4	10	270	0.00	29.676 
15:20	39.8	36.2	39.8	57	25.8	5	11	270	0.00	29.676 
15:25	40.2	36.0	40.2	56	25.8	6	14	270	0.00	29.676 
15:30	39.5	36.7	39.5	64	28.3	4	13	270	0.00	29.679 
15:35	38.2	35.2	38.2	67	28.2	4	7	270	0.00	29.679 
15:40	38.0	35.0	38.0	67	28.0	4	10	270	0.00	29.679 
15:45	38.3	38.3	38.3	65	27.6	3	7	270	0.00	29.685 
15:50	39.5	39.5	39.5	64	28.3	2	5	270	0.00	29.685 
15:55	39.9	37.2	39.9	56	25.5	4	9	270	0.00	29.685 
16:00	40.6	38.0	40.6	52	24.4	4	14	270	0.00	29.677 
16:05	40.6	38.0	40.6	49	23.0	4	9	270	0.00	29.677 
16:10	40.6	38.0	40.6	49	23.0	4	12	270	0.00	29.677 
16:15	41.2	38.7	41.2	45	21.5	4	12	270	0.00	29.678 
16:20	40.6	36.5	40.6	44	20.4	6	12	270	0.00	29.678 
16:25	40.9	37.5	40.9	45	21.2	5	13	270	0.00	29.678 
16:30	40.8	38.2	40.8	47	22.1	4	10	270	0.00	29.681 
16:35	41.3	38.8	41.3	42	20.0	4	7	270	0.00	29.681 
16:40	41.8	38.6	41.8	41	19.8	5	13	270	0.00	29.681 
16:45	41.8	38.6	41.8	40	19.3	5	10	270	0.00	29.687 
16:50	41.6	39.2	41.6	42	20.2	4	7	270	0.00	29.687 
16:55	41.8	39.4	41.8	38	18.1	4	12	270	0.00	29.687 
17:00	42.1	39.7	42.1	37	17.7	4	10	270	0.00	29.689 
17:05	41.5	37.5	41.5	38	17.8	6	11	270	0.00	29.689 
17:10	41.5	38.2	41.5	38	17.8	5	11	270	0.00	29.689 
17:15	41.5	41.5	41.5	42	20.1	2	4	270	0.00	29.691 
17:20	41.9	41.9	41.9	40	19.4	3	12	270	0.00	29.691 
17:25	41.9	38.7	41.9	37	17.5	5	13	248	0.00	29.691 
17:30	41.5	37.5	41.5	38	17.8	6	18	248	0.00	29.696 
17:35	41.2	38.7	41.2	39	18.1	4	14	270	0.00	29.696 
17:40	40.8	38.2	40.8	40	18.4	4	12	270	0.00	29.696 
17:45	40.8	40.8	40.8	42	19.5	3	7	270	0.00	29.701 
17:50	40.8	40.8	40.8	40	18.4	3	9	270	0.00	29.701 
17:55	40.5	40.5	40.5	40	18.1	3	11	270	0.00	29.701 
18:00	40.3	37.7	40.3	41	18.5	4	10	248	0.00	29.703 
18:05	40.2	37.5	40.2	41	18.4	4	10	270	0.00	29.703 
18:10	40.1	37.4	40.1	42	18.9	4	14	270	0.00	29.703 
18:15	39.9	39.9	39.9	43	19.2	3	13	270	0.00	29.707 
18:20	39.8	39.8	39.8	43	19.1	3	9	270	0.00	29.707 
18:25	39.6	36.9	39.6	44	19.5	4	8	270	0.00	29.707 
18:30	39.5	36.7	39.5	43	18.9	4	15	270	0.00	29.707 
18:35	39.3	36.5	39.3	44	19.2	4	12	270	0.00	29.707 
18:40	39.3	39.3	39.3	45	19.8	3	13	270	0.00	29.707 
18:45	39.2	36.4	39.2	45	19.7	4	10	270	0.00	29.709 
18:50	39.1	39.1	39.1	46	20.1	3	8	270	0.00	29.709 
18:55	38.9	38.9	38.9	47	20.4	2	10	248	0.00	29.709 
19:00	38.8	38.8	38.8	46	19.8	2	4	270	0.00	29.710 
19:05	38.8	38.8	38.8	47	20.3	2	6	270	0.00	29.710 
19:10	38.6	38.6	38.6	48	20.6	2	5	248	0.00	29.710 
19:15	38.3	38.3	38.3	48	20.4	1	3	248	0.00	29.711 
19:20	38.2	38.2	38.2	49	20.7	1	6	248	0.00	29.711 
19:25	38.0	38.0	38.0	51	21.5	0	1	270	0.00	29.711 
19:30	37.9	37.9	37.9	50	20.9	1	2	270	0.00	29.720 
19:35	37.9	37.9	37.9	51	21.4	1	3	248	0.00	29.720 
19:40	37.9	37.9	37.9	50	20.9	1	3	270	0.00	29.720 
19:45	37.9	37.9	37.9	51	21.4	1	4	248	0.00	29.724 
19:50	37.9	37.9	37.9	50	20.9	1	3	248	0.00	29.724 
19:55	37.9	37.9	37.9	50	20.9	2	4	248	0.00	29.724 
20:00	37.9	37.9	37.9	51	21.4	1	3	270	0.00	29.726 
20:05	37.8	37.8	37.8	51	21.3	1	4	270	0.00	29.726 
20:10	37.8	37.8	37.8	52	21.8	1	2	270	0.00	29.726 
20:15	37.6	37.6	37.6	51	21.1	1	3	248	0.00	29.732 
20:20	37.6	37.6	37.6	52	21.6	1	3	248	0.00	29.732 
20:25	37.6	37.6	37.6	52	21.6	1	4	270	0.00	29.732 
20:30	37.5	37.5	37.5	52	21.5	1	3	248	0.00	29.737 
20:35	37.3	37.3	37.3	52	21.3	1	2	248	0.00	29.737 
20:40	37.5	37.5	37.5	52	21.5	1	4	248	0.00	29.737 
20:45	37.3	37.3	37.3	52	21.3	1	2	248	0.00	29.737 
20:50	37.5	37.5	37.5	53	21.9	1	4	270	0.00	29.737 
20:55	37.6	37.6	37.6	52	21.6	1	3	270	0.00	29.737 
21:00	37.8	37.8	37.8	52	21.8	1	4	248	0.00	29.739 
21:05	37.9	37.9	37.9	51	21.4	1	4	248	0.00	29.739 
21:10	38.2	38.2	38.2	50	21.2	2	7	248	0.00	29.739 
21:15	38.5	38.5	38.5	51	22.0	2	6	270	0.00	29.736 
21:20	38.5	38.5	38.5	50	21.5	2	7	248	0.00	29.736 
21:25	38.6	38.6	38.6	50	21.6	2	4	248	0.00	29.736 
21:30	38.6	38.6	38.6	51	22.1	1	5	248	0.00	29.737 
21:35	38.6	38.6	38.6	51	22.1	2	7	248	0.00	29.737 
21:40	38.6	38.6	38.6	50	21.6	2	7	270	0.00	29.737 
21:45	38.8	38.8	38.8	50	21.8	2	9	248	0.00	29.736 
21:50	38.8	38.8	38.8	50	21.8	2	5	248	0.00	29.736 
21:55	38.8	38.8	38.8	50	21.8	2	7	248	0.00	29.736 
22:00	38.8	38.8	38.8	50	21.8	2	5	248	0.00	29.735 
22:05	38.8	38.8	38.8	51	22.2	2	5	248	0.00	29.735 
22:10	38.6	38.6	38.6	51	22.1	2	4	248	0.00	29.735 
22:15	38.5	38.5	38.5	52	22.4	1	5	248	0.00	29.733 
22:20	38.3	38.3	38.3	52	22.2	2	5	248	0.00	29.733 
22:25	38.3	38.3	38.3	52	22.2	1	4	248	0.00	29.733 
22:30	38.2	38.2	38.2	53	22.6	1	6	248	0.00	29.735 
22:35	38.3	38.3	38.3	53	22.7	2	6	248	0.00	29.735 
22:40	38.3	38.3	38.3	53	22.7	1	4	248	0.00	29.735 
22:45	38.3	38.3	38.3	54	23.1	1	4	248	0.00	29.728 
22:50	38.3	38.3	38.3	53	22.7	1	6	248	0.00	29.728 
22:55	38.2	38.2	38.2	54	23.0	1	3	248	0.00	29.728 
23:00	38.0	38.0	38.0	54	22.9	1	5	248	0.00	29.727 
23:05	37.9	37.9	37.9	54	22.8	1	5	270	0.00	29.727 
23:10	37.8	37.8	37.8	55	23.1	1	5	248	0.00	29.727 
23:15	37.8	37.8	37.8	55	23.1	1	4	248	0.00	29.721 
23:20	37.8	37.8	37.8	56	23.5	1	4	248	0.00	29.721 
23:25	37.6	37.6	37.6	55	22.9	1	3	248	0.00	29.721 
23:30	37.5	37.5	37.5	56	23.2	1	2	248	0.00	29.726 
23:35	37.3	37.3	37.3	56	23.1	0	2	248	0.00	29.726 
23:40	37.2	37.2	37.2	56	23.0	1	5	248	0.00	29.726 
23:45	37.2	37.2	37.2	55	22.5	1	5	248	0.00	29.723 
23:50	37.2	37.2	37.2	55	22.5	1	3	248	0.00	29.723 
23:55	37.2	37.2	37.2	55	22.5	1	3	248	0.00	29.723 

CoCoRaHS
IN-AL-39
A2 Web Hosting
Creative Commons License
GoDaddy
Look for:

loaded 2017-12-12 14:29:36 • last modified 2010-11-18 10:43:29
Privacy PolicyDisclaimer
• wx.awcolley.com is powered by PmWiki v.2002016 •
• all content (unless otherwise noted) © 2017 A W Colley